Time;durP1;ratioP1;P1;durP2;ratioP2;P2;SDS_P1;SDS_P2;PMS_P1;PMS_P2;Temp;Humidity;BMP_temperature;BMP_pressure;BME280_temperature;BME280_humidity;BME280_pressure;Samples;Min_cycle;Max_cycle;Signal;HPM_P1;HPM_P2
2023/09/19 00:00:24;;;;;;;10.07;2.60;;;14.50;99.90;;;;;;5125261;27;20890;-63
2023/09/19 00:03:01;;;;;;;9.63;2.58;;;14.70;99.90;;;;;;5125007;27;20084;-64
2023/09/19 00:05:34;;;;;;;12.85;2.40;;;14.70;99.90;;;;;;5125197;27;20432;-62
2023/09/19 00:08:01;;;;;;;14.13;3.00;;;14.50;99.90;;;;;;5124605;27;20027;-64
2023/09/19 00:10:30;;;;;;;9.88;2.60;;;14.40;99.90;;;;;;5125190;27;20579;-61
2023/09/19 00:12:58;;;;;;;10.57;2.42;;;14.60;99.90;;;;;;5107746;27;20043;-64
2023/09/19 00:15:30;;;;;;;9.27;2.20;;;14.50;99.90;;;;;;5124884;27;20066;-64
2023/09/19 00:17:56;;;;;;;12.00;2.88;;;14.40;99.90;;;;;;5123669;27;20023;-63
2023/09/19 00:20:23;;;;;;;10.70;2.50;;;14.30;99.90;;;;;;5125481;27;20488;-63
2023/09/19 00:22:53;;;;;;;7.78;1.55;;;14.30;99.90;;;;;;5125272;27;20066;-64
2023/09/19 00:25:20;;;;;;;14.15;2.72;;;14.40;99.90;;;;;;5123732;27;20412;-64
2023/09/19 00:27:47;;;;;;;12.20;2.75;;;14.40;99.90;;;;;;5124248;27;20422;-60
2023/09/19 00:30:19;;;;;;;9.25;2.20;;;14.30;99.90;;;;;;5106782;27;20060;-63
2023/09/19 00:32:47;;;;;;;11.18;2.47;;;14.30;99.90;;;;;;5125415;27;20486;-62
2023/09/19 00:35:15;;;;;;;13.65;2.70;;;14.30;99.90;;;;;;5124837;27;20096;-62
2023/09/19 00:37:41;;;;;;;11.80;2.88;;;14.20;99.90;;;;;;5123895;27;20083;-62
2023/09/19 00:40:12;;;;;;;9.38;1.67;;;14.40;99.90;;;;;;5105087;27;20107;-62
2023/09/19 00:42:39;;;;;;;15.05;3.47;;;14.10;99.90;;;;;;5106284;27;20035;-61
2023/09/19 00:45:09;;;;;;;12.23;1.77;;;14.20;99.90;;;;;;5106163;27;20427;-62
2023/09/19 00:47:35;;;;;;;13.25;2.90;;;14.10;99.90;;;;;;5105638;27;20505;-63
2023/09/19 00:50:03;;;;;;;10.65;2.70;;;14.10;99.90;;;;;;5123462;27;20420;-61
2023/09/19 00:52:28;;;;;;;12.60;2.95;;;14.20;99.90;;;;;;5106392;27;20030;-62
2023/09/19 00:54:54;;;;;;;14.93;2.90;;;14.20;99.90;;;;;;5123604;27;20031;-61
2023/09/19 00:57:22;;;;;;;14.30;2.60;;;14.10;99.90;;;;;;5123770;27;20422;-62
2023/09/19 00:59:50;;;;;;;15.10;3.13;;;14.10;99.90;;;;;;5123868;27;20088;-63
2023/09/19 01:02:16;;;;;;;13.10;3.00;;;14.10;99.90;;;;;;5124164;27;20039;-63
2023/09/19 01:04:42;;;;;;;11.95;2.50;;;14.10;99.90;;;;;;5124087;27;20367;-63
2023/09/19 01:07:09;;;;;;;13.25;3.22;;;14.00;99.90;;;;;;5105292;27;20456;-64
2023/09/19 01:09:35;;;;;;;9.05;2.63;;;13.90;99.90;;;;;;5088637;27;20038;-64
2023/09/19 01:12:04;;;;;;;15.18;3.00;;;14.00;99.90;;;;;;5123684;27;20023;-62
2023/09/19 01:14:55;;;;;;;12.93;2.95;;;13.80;99.90;;;;;;5123576;27;20031;-62
2023/09/19 01:17:36;;;;;;;12.73;2.90;;;13.80;99.90;;;;;;5123374;27;20381;-65
2023/09/19 01:20:21;;;;;;;9.73;2.90;;;14.30;99.90;;;;;;5086586;27;20047;-63
2023/09/19 01:23:24;;;;;;;10.98;1.60;;;13.90;99.90;;;;;;5123408;27;20038;-61
2023/09/19 01:26:06;;;;;;;10.70;3.13;;;13.90;99.90;;;;;;5123744;27;20114;-61
2023/09/19 01:28:43;;;;;;;9.45;2.65;;;13.80;99.90;;;;;;5123254;27;20057;-62
2023/09/19 01:31:11;;;;;;;7.35;2.38;;;13.70;99.90;;;;;;5123820;27;20043;-61
2023/09/19 01:34:08;;;;;;;10.23;2.55;;;13.90;99.90;;;;;;5123344;28;20035;-62
2023/09/19 01:36:38;;;;;;;12.85;3.47;;;13.90;99.90;;;;;;5122869;28;20103;-63
2023/09/19 01:39:13;;;;;;;15.07;3.25;;;13.80;99.90;;;;;;5122879;28;20084;-62
2023/09/19 01:42:06;;;;;;;13.63;3.08;;;13.70;99.90;;;;;;5123627;28;20039;-62
2023/09/19 01:44:57;;;;;;;10.82;2.80;;;13.80;99.90;;;;;;5094808;28;20225;-63
2023/09/19 01:47:46;;;;;;;10.35;2.85;;;13.80;99.90;;;;;;5122601;28;20039;-62
2023/09/19 01:50:26;;;;;;;9.80;2.70;;;13.80;99.90;;;;;;5123251;28;20056;-63
2023/09/19 01:53:04;;;;;;;12.90;3.03;;;13.70;99.90;;;;;;5123460;28;20019;-61
2023/09/19 01:55:36;;;;;;;10.95;2.85;;;13.80;99.90;;;;;;5123087;27;20043;-60
2023/09/19 01:58:10;;;;;;;10.55;2.90;;;13.80;99.90;;;;;;5122536;28;20051;-63
2023/09/19 02:00:41;;;;;;;13.27;2.97;;;13.70;99.90;;;;;;5124261;28;20423;-63
2023/09/19 02:03:08;;;;;;;6.40;1.60;;;13.60;99.90;;;;;;5123499;28;20512;-61
2023/09/19 02:05:34;;;;;;;9.43;2.70;;;13.80;99.90;;;;;;5122777;28;20118;-62
2023/09/19 02:08:00;;;;;;;11.98;3.10;;;13.80;99.90;;;;;;5105707;28;20557;-61
2023/09/19 02:10:26;;;;;;;13.68;3.08;;;13.70;99.90;;;;;;5087980;28;20494;-60
2023/09/19 02:12:51;;;;;;;12.80;2.90;;;13.80;99.90;;;;;;5106138;28;20024;-64
2023/09/19 02:15:18;;;;;;;9.93;2.47;;;13.70;99.90;;;;;;5123631;28;20088;-63
2023/09/19 02:17:45;;;;;;;8.80;2.40;;;13.70;99.90;;;;;;5122868;28;20037;-62
2023/09/19 02:20:14;;;;;;;11.70;2.88;;;13.70;99.90;;;;;;5122584;28;20393;-63
2023/09/19 02:22:44;;;;;;;12.75;2.60;;;13.60;99.90;;;;;;5104134;28;20152;-61
2023/09/19 02:25:10;;;;;;;15.45;3.17;;;13.60;99.90;;;;;;5086074;28;20031;-63
2023/09/19 02:27:37;;;;;;;11.20;2.65;;;13.60;99.90;;;;;;5103209;28;20118;-60
2023/09/19 02:30:04;;;;;;;10.32;3.15;;;13.50;99.90;;;;;;5104590;27;20062;-63
2023/09/19 02:32:31;;;;;;;12.50;3.25;;;13.50;99.90;;;;;;5108376;27;20085;-63
2023/09/19 02:35:00;;;;;;;10.70;2.13;;;13.60;99.90;;;;;;5126726;27;20024;-62
2023/09/19 02:37:26;;;;;;;8.88;2.20;;;13.60;99.90;;;;;;5126746;27;20122;-63
2023/09/19 02:39:51;;;;;;;8.25;2.22;;;13.50;99.90;;;;;;5107805;27;20122;-63
2023/09/19 02:42:17;;;;;;;10.60;2.75;;;13.60;99.90;;;;;;5126878;27;20071;-62
2023/09/19 02:44:46;;;;;;;9.00;2.65;;;13.60;99.90;;;;;;5108569;27;20044;-60
2023/09/19 02:47:12;;;;;;;13.20;2.88;;;13.50;99.90;;;;;;5126228;27;20054;-60
2023/09/19 02:49:38;;;;;;;8.52;2.30;;;13.40;99.90;;;;;;5126318;27;20035;-62
2023/09/19 02:52:04;;;;;;;8.23;2.50;;;13.50;99.90;;;;;;5126897;27;20883;-62
2023/09/19 02:54:30;;;;;;;8.05;2.30;;;13.50;99.90;;;;;;5126755;27;20035;-61
2023/09/19 02:56:55;;;;;;;9.07;2.47;;;13.50;99.90;;;;;;5126478;27;20134;-63
2023/09/19 02:59:21;;;;;;;11.40;2.83;;;13.40;99.90;;;;;;5126103;27;20262;-64
2023/09/19 03:01:48;;;;;;;6.15;1.98;;;13.50;99.90;;;;;;5091787;27;20043;-63
2023/09/19 03:04:17;;;;;;;8.93;2.78;;;13.70;99.90;;;;;;5125912;27;20066;-64
2023/09/19 03:06:44;;;;;;;8.98;2.10;;;13.50;99.90;;;;;;5109033;27;20118;-62
2023/09/19 03:09:13;;;;;;;9.65;2.78;;;13.60;99.90;;;;;;5126064;27;20027;-63
2023/09/19 03:11:40;;;;;;;9.63;2.53;;;13.60;99.90;;;;;;5126095;27;20084;-65
2023/09/19 03:14:05;;;;;;;9.40;2.70;;;13.80;99.90;;;;;;5107839;27;20538;-60
2023/09/19 03:16:31;;;;;;;7.75;1.70;;;13.70;99.90;;;;;;5126472;27;20023;-61
2023/09/19 03:18:59;;;;;;;9.32;2.30;;;13.70;99.90;;;;;;5125554;27;20031;-62
2023/09/19 03:21:25;;;;;;;9.23;2.20;;;13.80;99.90;;;;;;5125542;27;20054;-64
2023/09/19 03:23:51;;;;;;;9.88;2.25;;;13.90;99.90;;;;;;5126217;27;20387;-66
2023/09/19 03:26:17;;;;;;;9.00;2.78;;;13.80;99.90;;;;;;5106733;27;20031;-64
2023/09/19 03:28:43;;;;;;;8.43;2.40;;;13.80;99.90;;;;;;5126048;27;20069;-61
2023/09/19 03:31:09;;;;;;;13.30;2.80;;;14.00;99.90;;;;;;5125609;27;20035;-62
2023/09/19 03:33:35;;;;;;;8.88;2.33;;;14.00;99.90;;;;;;5107272;27;20037;-62
2023/09/19 03:36:04;;;;;;;9.20;2.28;;;14.00;99.90;;;;;;5106676;27;20031;-61
2023/09/19 03:38:31;;;;;;;9.85;2.65;;;13.90;99.90;;;;;;5106532;27;20457;-61
2023/09/19 03:40:57;;;;;;;11.35;2.85;;;13.80;99.90;;;;;;5125113;27;20047;-61
2023/09/19 03:43:22;;;;;;;10.20;2.92;;;13.80;99.90;;;;;;5123598;27;20042;-63
2023/09/19 03:45:48;;;;;;;8.90;2.70;;;13.80;99.90;;;;;;5106676;27;20042;-64
2023/09/19 03:48:14;;;;;;;10.02;2.85;;;13.80;99.90;;;;;;5124354;27;20035;-62
2023/09/19 03:50:40;;;;;;;10.82;2.78;;;14.00;99.90;;;;;;5125369;27;20058;-62
2023/09/19 03:53:09;;;;;;;11.45;2.88;;;13.90;99.90;;;;;;5107135;27;20031;-59
2023/09/19 03:55:38;;;;;;;7.60;3.03;;;13.90;99.90;;;;;;5106585;27;20022;-64
2023/09/19 03:58:04;;;;;;;9.55;2.75;;;13.80;99.90;;;;;;5107797;27;20043;-64
2023/09/19 04:00:30;;;;;;;13.90;3.28;;;13.80;99.90;;;;;;5090771;27;20101;-61
2023/09/19 04:02:56;;;;;;;10.32;3.15;;;13.80;99.90;;;;;;5124518;27;20058;-63
2023/09/19 04:05:25;;;;;;;10.02;3.08;;;13.80;99.90;;;;;;5125618;27;20069;-61
2023/09/19 04:07:51;;;;;;;10.38;2.72;;;13.70;99.90;;;;;;5124716;27;20382;-62
2023/09/19 04:10:17;;;;;;;9.40;2.85;;;13.60;99.90;;;;;;5106553;27;20046;-62
2023/09/19 04:13:01;;;;;;;9.15;2.72;;;13.80;99.90;;;;;;5125498;27;20046;-59
2023/09/19 04:15:27;;;;;;;11.02;3.20;;;13.80;99.90;;;;;;5124832;27;20126;-62
2023/09/19 04:17:52;;;;;;;12.98;3.83;;;13.60;99.90;;;;;;5124903;27;20059;-61
2023/09/19 04:20:25;;;;;;;11.02;2.92;;;13.60;99.90;;;;;;5123982;27;20083;-62
2023/09/19 04:22:51;;;;;;;15.45;3.45;;;13.60;99.90;;;;;;5124593;27;20073;-61
2023/09/19 04:25:18;;;;;;;14.70;3.20;;;13.70;99.90;;;;;;5125075;27;20042;-62
2023/09/19 04:27:44;;;;;;;11.20;3.45;;;13.50;99.90;;;;;;5125144;27;20049;-64
2023/09/19 04:30:11;;;;;;;12.45;3.15;;;13.70;99.90;;;;;;5088760;27;20035;-62
2023/09/19 04:32:39;;;;;;;11.15;3.03;;;13.70;99.90;;;;;;5125244;27;20039;-64
2023/09/19 04:35:08;;;;;;;16.35;4.03;;;13.70;99.90;;;;;;5124886;27;20039;-61
2023/09/19 04:37:41;;;;;;;11.90;2.78;;;13.70;99.90;;;;;;5124931;27;21117;-63
2023/09/19 04:40:17;;;;;;;15.15;3.22;;;13.70;99.90;;;;;;5087814;27;20031;-61
2023/09/19 04:42:43;;;;;;;11.52;3.10;;;13.60;99.90;;;;;;5121399;27;20185;-61
2023/09/19 04:45:10;;;;;;;22.13;3.88;;;13.60;99.90;;;;;;5124752;27;20482;-62
2023/09/19 04:47:40;;;;;;;14.18;3.28;;;13.60;99.90;;;;;;5106122;27;20486;-62
2023/09/19 04:50:08;;;;;;;14.07;3.35;;;13.70;99.90;;;;;;5105198;27;20099;-64
2023/09/19 04:52:33;;;;;;;10.13;2.97;;;13.50;99.90;;;;;;5124509;27;20431;-60
2023/09/19 04:54:59;;;;;;;11.63;3.20;;;13.60;99.90;;;;;;5105634;27;20162;-63
2023/09/19 04:57:25;;;;;;;12.05;2.90;;;13.40;99.90;;;;;;5124372;27;20151;-63
2023/09/19 04:59:50;;;;;;;10.63;2.40;;;13.60;99.90;;;;;;5089571;27;20031;-63
2023/09/19 05:02:16;;;;;;;14.98;2.97;;;13.50;99.90;;;;;;5123323;27;20084;-64
2023/09/19 05:04:42;;;;;;;12.95;3.30;;;13.50;99.90;;;;;;5123807;27;20053;-61
2023/09/19 05:07:07;;;;;;;7.38;1.42;;;13.40;99.90;;;;;;5124403;27;20171;-63
2023/09/19 05:09:34;;;;;;;13.60;3.20;;;13.50;99.90;;;;;;5124259;27;20123;-62
2023/09/19 05:12:00;;;;;;;10.50;3.08;;;13.40;99.90;;;;;;5123479;27;20039;-62
2023/09/19 05:14:26;;;;;;;13.27;3.13;;;13.30;99.90;;;;;;5123794;27;20498;-65
2023/09/19 05:16:52;;;;;;;13.75;2.90;;;13.30;99.90;;;;;;5124062;27;20111;-60
2023/09/19 05:19:17;;;;;;;12.80;2.70;;;13.30;99.90;;;;;;5123228;27;20038;-64
2023/09/19 05:21:43;;;;;;;11.95;1.98;;;13.20;99.90;;;;;;5124005;27;20031;-64
2023/09/19 05:24:08;;;;;;;17.52;3.33;;;13.20;99.90;;;;;;5105492;27;20030;-62
2023/09/19 05:26:34;;;;;;;12.50;3.00;;;13.10;99.90;;;;;;5123793;27;23247;-62
2023/09/19 05:29:02;;;;;;;13.93;3.15;;;13.10;99.90;;;;;;5123037;27;20059;-61
2023/09/19 05:31:27;;;;;;;12.85;3.17;;;13.20;99.90;;;;;;5123495;27;20039;-62
2023/09/19 05:33:55;;;;;;;14.55;3.67;;;13.20;99.90;;;;;;5124281;28;20462;-61
2023/09/19 05:36:20;;;;;;;11.82;2.83;;;13.20;99.90;;;;;;5123568;28;20031;-61
2023/09/19 05:38:49;;;;;;;13.85;2.80;;;13.10;99.90;;;;;;5123558;28;20037;-61
2023/09/19 05:41:15;;;;;;;14.73;2.97;;;13.00;99.90;;;;;;5123863;28;20061;-63
2023/09/19 05:43:41;;;;;;;13.73;3.50;;;13.10;99.90;;;;;;5123536;28;20126;-64
2023/09/19 05:46:08;;;;;;;7.07;1.92;;;13.00;99.90;;;;;;5122912;28;20430;-63
2023/09/19 05:48:34;;;;;;;20.27;3.45;;;13.00;99.90;;;;;;5122839;28;20043;-62
2023/09/19 05:51:01;;;;;;;11.27;2.92;;;13.00;99.90;;;;;;5122934;28;20383;-62
2023/09/19 05:53:26;;;;;;;19.48;3.55;;;13.00;99.90;;;;;;5123221;28;20027;-61
2023/09/19 05:55:53;;;;;;;8.25;1.83;;;13.10;99.90;;;;;;5088970;28;20118;-65
2023/09/19 05:58:19;;;;;;;9.15;1.60;;;13.10;99.90;;;;;;5104958;28;20054;-63
2023/09/19 06:00:47;;;;;;;12.30;3.10;;;13.20;99.90;;;;;;5123380;28;20051;-63
2023/09/19 06:03:14;;;;;;;12.38;2.80;;;13.20;99.90;;;;;;5123336;28;20031;-61
2023/09/19 06:05:43;;;;;;;14.75;3.42;;;13.20;99.90;;;;;;5124117;27;20095;-60
2023/09/19 06:08:09;;;;;;;15.10;3.58;;;13.20;99.90;;;;;;5127486;27;20039;-59
2023/09/19 06:10:35;;;;;;;12.80;3.58;;;13.40;99.90;;;;;;5127278;27;20138;-60
2023/09/19 06:13:06;;;;;;;11.60;2.85;;;13.40;99.90;;;;;;5108603;27;20106;-63
2023/09/19 06:15:33;;;;;;;12.63;3.17;;;13.40;99.90;;;;;;5127416;27;20088;-61
2023/09/19 06:17:59;;;;;;;12.43;2.80;;;13.40;99.90;;;;;;5127235;27;20042;-61
2023/09/19 06:20:26;;;;;;;12.05;3.08;;;13.40;99.90;;;;;;5127220;27;20054;-61
2023/09/19 06:22:52;;;;;;;13.73;2.90;;;13.40;99.90;;;;;;5108428;27;20440;-63
2023/09/19 06:25:21;;;;;;;12.30;3.17;;;13.30;99.90;;;;;;5108825;27;20135;-61
2023/09/19 06:27:53;;;;;;;16.60;2.92;;;13.40;99.90;;;;;;5108582;27;20047;-62
2023/09/19 06:30:20;;;;;;;10.18;1.90;;;13.40;99.90;;;;;;5126742;27;20138;-62
2023/09/19 06:32:46;;;;;;;10.68;1.92;;;13.40;99.90;;;;;;5126991;27;20447;-61
2023/09/19 06:35:13;;;;;;;14.88;3.05;;;13.30;99.90;;;;;;5127131;27;20028;-62
2023/09/19 06:37:40;;;;;;;14.32;2.83;;;13.30;99.90;;;;;;5126959;27;20072;-61
2023/09/19 06:40:14;;;;;;;8.50;1.45;;;13.40;99.90;;;;;;5127006;27;20035;-64
2023/09/19 06:43:01;;;;;;;12.77;3.10;;;13.50;99.90;;;;;;5126716;27;20059;-62
2023/09/19 06:45:27;;;;;;;15.20;3.03;;;13.50;99.90;;;;;;5126841;27;20493;-61
2023/09/19 06:47:57;;;;;;;12.15;3.33;;;13.50;99.90;;;;;;5108318;27;20107;-61
2023/09/19 06:50:23;;;;;;;12.18;3.25;;;14.00;99.90;;;;;;5109940;27;20047;-61
2023/09/19 06:52:51;;;;;;;15.45;3.30;;;13.60;99.90;;;;;;5126502;27;20477;-61
2023/09/19 06:55:19;;;;;;;13.68;3.75;;;13.70;99.90;;;;;;5108783;27;20062;-62
2023/09/19 06:57:46;;;;;;;13.88;3.50;;;13.80;99.90;;;;;;5126052;27;20047;-62
2023/09/19 07:00:15;;;;;;;13.98;3.00;;;13.80;99.90;;;;;;5126393;27;20051;-59
2023/09/19 07:02:42;;;;;;;7.47;1.50;;;13.80;99.90;;;;;;5126404;27;20496;-59
2023/09/19 07:05:08;;;;;;;14.70;3.00;;;13.90;99.90;;;;;;5126492;27;20072;-64
2023/09/19 07:07:36;;;;;;;10.52;2.72;;;14.00;99.90;;;;;;5126792;27;20035;-63
2023/09/19 07:10:05;;;;;;;17.08;3.42;;;14.00;99.90;;;;;;5126029;27;20064;-64
2023/09/19 07:12:32;;;;;;;13.90;3.08;;;14.10;99.90;;;;;;5108649;27;20046;-62
2023/09/19 07:14:58;;;;;;;14.40;3.20;;;14.20;99.90;;;;;;5125297;27;20051;-63
2023/09/19 07:17:24;;;;;;;11.02;1.92;;;14.20;99.90;;;;;;5108701;27;20185;-60
2023/09/19 07:19:50;;;;;;;13.27;2.92;;;14.20;99.90;;;;;;5106800;27;20035;-61
2023/09/19 07:22:16;;;;;;;12.75;2.30;;;14.30;99.90;;;;;;5126303;27;20046;-60
2023/09/19 07:24:42;;;;;;;14.70;3.20;;;14.30;99.90;;;;;;5126033;27;20038;-62
2023/09/19 07:27:08;;;;;;;12.35;2.97;;;14.30;99.90;;;;;;5126481;27;20043;-62
2023/09/19 07:29:34;;;;;;;12.18;2.80;;;14.40;99.90;;;;;;5126185;27;20047;-62
2023/09/19 07:32:00;;;;;;;10.48;3.00;;;14.40;99.90;;;;;;5125997;27;20041;-64
2023/09/19 07:34:25;;;;;;;13.05;2.90;;;14.50;99.90;;;;;;5107335;27;20099;-63
2023/09/19 07:36:51;;;;;;;14.73;3.38;;;14.40;99.90;;;;;;5106772;27;20085;-63
2023/09/19 07:39:17;;;;;;;12.57;3.50;;;14.60;99.90;;;;;;5125048;27;20115;-63
2023/09/19 07:41:43;;;;;;;13.15;3.13;;;14.60;99.90;;;;;;5125605;27;20521;-62
2023/09/19 07:44:11;;;;;;;14.50;2.28;;;14.70;99.90;;;;;;5106600;27;20034;-62
2023/09/19 07:46:37;;;;;;;13.25;3.45;;;14.70;99.90;;;;;;5125805;27;20038;-61
2023/09/19 07:49:02;;;;;;;13.82;1.80;;;14.80;99.90;;;;;;5124946;27;20027;-62
2023/09/19 07:51:29;;;;;;;14.93;3.78;;;14.70;99.90;;;;;;5092333;27;20168;-62
2023/09/19 07:53:54;;;;;;;15.02;3.60;;;14.80;99.90;;;;;;5123529;27;20035;-62
2023/09/19 07:56:20;;;;;;;12.55;2.70;;;14.80;99.90;;;;;;5124492;27;20080;-64
2023/09/19 07:58:46;;;;;;;13.60;2.25;;;14.90;99.90;;;;;;5124098;27;20524;-64
2023/09/19 08:01:13;;;;;;;15.35;4.32;;;14.90;99.90;;;;;;5125260;27;20054;-63
2023/09/19 08:03:40;;;;;;;15.32;3.30;;;14.90;99.90;;;;;;5125248;27;20031;-62
2023/09/19 08:06:07;;;;;;;14.00;3.40;;;15.10;99.90;;;;;;5125201;27;20083;-63
2023/09/19 08:08:42;;;;;;;14.02;3.58;;;15.10;99.90;;;;;;5125306;27;20034;-61
2023/09/19 08:11:12;;;;;;;12.15;3.38;;;15.00;99.90;;;;;;5124725;27;20027;-63
2023/09/19 08:13:43;;;;;;;16.80;3.88;;;15.10;99.90;;;;;;5125484;27;20470;-62
2023/09/19 08:16:10;;;;;;;14.85;3.38;;;15.20;99.90;;;;;;5124527;27;20031;-62
2023/09/19 08:18:39;;;;;;;14.63;3.45;;;15.20;99.90;;;;;;5124954;27;20116;-64
2023/09/19 08:21:10;;;;;;;14.82;3.55;;;15.20;99.90;;;;;;5124327;27;20381;-64
2023/09/19 08:23:38;;;;;;;12.63;3.53;;;15.20;99.90;;;;;;5106014;27;20071;-62
2023/09/19 08:26:07;;;;;;;14.75;2.65;;;15.30;99.90;;;;;;5089339;27;20042;-62
2023/09/19 08:28:36;;;;;;;14.00;3.35;;;15.30;99.90;;;;;;5124671;27;20816;-63
2023/09/19 08:31:06;;;;;;;15.70;2.90;;;15.40;99.90;;;;;;5124062;27;20035;-62
2023/09/19 08:33:36;;;;;;;15.38;3.38;;;15.40;99.90;;;;;;5124569;27;20027;-63
2023/09/19 08:36:05;;;;;;;14.98;3.33;;;15.40;99.90;;;;;;5124682;27;20024;-64
2023/09/19 08:38:34;;;;;;;13.40;3.35;;;15.60;99.90;;;;;;5124198;27;20039;-63
2023/09/19 08:41:05;;;;;;;18.98;3.38;;;15.60;99.90;;;;;;5124458;27;20068;-63
2023/09/19 08:43:33;;;;;;;14.05;4.03;;;15.60;99.90;;;;;;5125076;27;20047;-62
2023/09/19 08:46:20;;;;;;;14.35;3.63;;;15.60;99.90;;;;;;5124471;27;20039;-64
2023/09/19 08:49:08;;;;;;;13.27;3.45;;;15.70;99.90;;;;;;5123511;27;20053;-61
2023/09/19 08:51:50;;;;;;;13.80;3.25;;;15.80;99.90;;;;;;5124125;27;20075;-63
2023/09/19 08:54:26;;;;;;;10.57;3.08;;;16.00;99.90;;;;;;5124243;27;20116;-63
2023/09/19 08:56:54;;;;;;;16.48;2.28;;;16.10;99.90;;;;;;5124287;27;20035;-62
2023/09/19 08:59:26;;;;;;;13.98;3.00;;;16.30;99.90;;;;;;5123673;27;20040;-62
2023/09/19 09:01:56;;;;;;;12.65;2.80;;;16.40;99.90;;;;;;5124217;27;20031;-61
2023/09/19 09:04:23;;;;;;;12.90;2.47;;;16.40;99.90;;;;;;5123930;27;20046;-62
2023/09/19 09:06:53;;;;;;;12.90;3.30;;;16.60;99.90;;;;;;5124012;27;20050;-64
2023/09/19 09:09:20;;;;;;;15.93;3.45;;;16.70;99.90;;;;;;5123648;27;20042;-63
2023/09/19 09:11:47;;;;;;;14.13;2.83;;;16.80;99.90;;;;;;5106070;27;20099;-63
2023/09/19 09:14:14;;;;;;;13.35;3.10;;;16.90;99.90;;;;;;5124048;27;20419;-64
2023/09/19 09:16:39;;;;;;;12.60;3.00;;;17.00;99.90;;;;;;5105155;27;20073;-62
2023/09/19 09:19:05;;;;;;;11.05;3.05;;;17.10;99.90;;;;;;5123300;27;20482;-62
2023/09/19 09:21:35;;;;;;;11.57;2.85;;;17.10;99.90;;;;;;5124218;27;20031;-61
2023/09/19 09:24:33;;;;;;;14.32;3.40;;;17.20;99.90;;;;;;5123936;27;20121;-64
2023/09/19 09:27:00;;;;;;;17.83;4.20;;;17.20;99.90;;;;;;5123377;27;20039;-61
2023/09/19 09:29:47;;;;;;;13.85;3.40;;;17.20;99.90;;;;;;5122834;27;20470;-61
2023/09/19 09:32:28;;;;;;;18.05;3.38;;;17.20;99.90;;;;;;5123607;27;20039;-63
2023/09/19 09:34:57;;;;;;;18.30;3.72;;;17.30;99.90;;;;;;5104070;28;20035;-63
2023/09/19 09:37:24;;;;;;;13.90;3.67;;;17.70;99.90;;;;;;5123723;28;20038;-65
2023/09/19 09:39:57;;;;;;;14.02;3.42;;;17.20;99.90;;;;;;5123475;27;20114;-63
2023/09/19 09:42:38;;;;;;;15.47;2.67;;;17.20;99.90;;;;;;5127319;27;20031;-61
2023/09/19 09:48:13;;;;;;;14.55;3.78;;;17.30;99.90;;;;;;5127659;27;20532;-62
2023/09/19 09:50:56;;;;;;;16.92;3.90;;;17.30;99.90;;;;;;5092167;27;20123;-63
2023/09/19 09:53:29;;;;;;;16.23;2.60;;;17.40;99.90;;;;;;5127827;27;20087;-62
2023/09/19 09:56:02;;;;;;;15.85;3.75;;;17.40;99.90;;;;;;5127684;27;20063;-63
2023/09/19 09:58:37;;;;;;;15.90;4.15;;;17.30;99.90;;;;;;5127253;27;20074;-63
2023/09/19 10:01:14;;;;;;;13.10;4.13;;;17.40;99.90;;;;;;5110413;27;20043;-64
2023/09/19 10:03:43;;;;;;;16.52;3.80;;;17.50;99.90;;;;;;5127770;27;20073;-63
2023/09/19 10:06:26;;;;;;;14.95;4.03;;;17.50;99.90;;;;;;5108449;27;20030;-63
2023/09/19 10:11:44;;;;;;;12.50;3.53;;;17.50;99.90;;;;;;5127220;27;20043;-61
2023/09/19 10:14:15;;;;;;;14.55;3.60;;;17.40;99.90;;;;;;5127184;27;20393;-63
2023/09/19 10:16:48;;;;;;;14.40;3.47;;;17.40;99.90;;;;;;5127200;27;20028;-62
2023/09/19 10:19:46;;;;;;;11.80;3.10;;;17.40;99.90;;;;;;5127158;27;20071;-62
2023/09/19 10:22:14;;;;;;;11.65;3.05;;;17.50;99.90;;;;;;5127451;27;20035;-63
2023/09/19 10:24:41;;;;;;;12.63;3.20;;;17.60;99.90;;;;;;5127498;27;20067;-62
2023/09/19 10:27:09;;;;;;;12.02;3.05;;;17.80;99.90;;;;;;5109306;27;20043;-62
2023/09/19 10:29:39;;;;;;;11.10;2.85;;;17.90;99.90;;;;;;5126788;27;20039;-63
2023/09/19 10:32:06;;;;;;;15.48;3.00;;;17.90;99.90;;;;;;5126864;27;20115;-60
2023/09/19 10:34:42;;;;;;;15.65;3.47;;;17.90;99.90;;;;;;5127131;27;20047;-62
2023/09/19 10:37:12;;;;;;;10.63;2.97;;;18.00;99.90;;;;;;5127420;27;20042;-62
2023/09/19 10:39:40;;;;;;;14.57;3.47;;;18.10;99.90;;;;;;5108932;27;20046;-61
2023/09/19 10:42:08;;;;;;;10.85;2.58;;;18.00;99.90;;;;;;5126559;27;20035;-61
2023/09/19 10:44:42;;;;;;;15.48;3.33;;;18.00;99.90;;;;;;5126656;27;20035;-62
2023/09/19 10:47:08;;;;;;;11.88;3.15;;;17.80;99.90;;;;;;5126101;27;20039;-64
2023/09/19 10:49:34;;;;;;;17.15;3.63;;;17.80;99.90;;;;;;5126512;27;20478;-61
2023/09/19 10:52:01;;;;;;;12.52;3.08;;;17.80;99.90;;;;;;5108035;27;20023;-62
2023/09/19 10:54:34;;;;;;;13.35;2.97;;;17.80;99.90;;;;;;5126315;27;20035;-61
2023/09/19 10:57:01;;;;;;;14.02;2.90;;;17.90;99.90;;;;;;5126015;27;20037;-63
2023/09/19 10:59:34;;;;;;;14.02;3.30;;;18.00;99.90;;;;;;5126358;27;20464;-63
2023/09/19 11:02:17;;;;;;;16.98;3.58;;;18.10;99.90;;;;;;5125440;27;20432;-62
2023/09/19 11:04:45;;;;;;;10.55;2.88;;;18.20;99.90;;;;;;5126575;27;20062;-60
2023/09/19 11:07:15;;;;;;;15.52;3.15;;;18.30;99.90;;;;;;5126185;27;20083;-62
2023/09/19 11:09:54;;;;;;;13.27;2.90;;;18.40;99.90;;;;;;5126503;27;20065;-61
2023/09/19 11:12:37;;;;;;;14.30;3.10;;;18.50;99.90;;;;;;5108780;27;20487;-62
2023/09/19 11:15:10;;;;;;;11.65;2.55;;;18.60;99.90;;;;;;5126405;27;20110;-61
2023/09/19 11:17:41;;;;;;;15.35;3.00;;;18.70;99.90;;;;;;5107479;27;20128;-61
2023/09/19 11:22:56;;;;;;;10.60;2.90;;;18.70;99.90;;;;;;5125365;27;20039;-61
2023/09/19 11:25:31;;;;;;;12.60;3.17;;;18.70;99.90;;;;;;5126411;27;20436;-63
2023/09/19 11:28:06;;;;;;;10.57;2.90;;;18.70;99.90;;;;;;5125256;27;20063;-61
2023/09/19 11:30:36;;;;;;;11.30;2.53;;;18.70;99.90;;;;;;5126346;27;20069;-60
2023/09/19 11:33:28;;;;;;;11.85;2.70;;;18.70;99.90;;;;;;5125927;27;20035;-63
2023/09/19 11:36:06;;;;;;;18.73;2.95;;;18.70;99.90;;;;;;5091996;27;20038;-63
2023/09/19 11:38:45;;;;;;;11.70;2.70;;;18.60;99.90;;;;;;5125189;27;20047;-61
2023/09/19 11:43:50;;;;;;;11.15;2.58;;;18.60;99.90;;;;;;5125284;27;20482;-61
2023/09/19 11:46:21;;;;;;;8.48;2.05;;;18.50;99.90;;;;;;5125648;27;20076;-62
2023/09/19 11:48:49;;;;;;;9.90;2.47;;;18.70;99.90;;;;;;5124871;27;20039;-63
2023/09/19 11:51:19;;;;;;;10.90;2.42;;;18.80;99.90;;;;;;5125778;27;20043;-62
2023/09/19 11:53:48;;;;;;;10.20;2.50;;;18.80;99.90;;;;;;5125509;27;20027;-60
2023/09/19 11:56:20;;;;;;;10.35;2.00;;;18.80;99.90;;;;;;5125604;27;20057;-60
2023/09/19 11:58:48;;;;;;;7.88;2.10;;;18.80;99.90;;;;;;5124939;27;20047;-63
2023/09/19 12:01:21;;;;;;;12.25;2.40;;;18.80;99.90;;;;;;5124570;27;20120;-62
2023/09/19 12:03:51;;;;;;;10.82;2.30;;;18.80;99.90;;;;;;5123207;27;20497;-62
2023/09/19 12:06:17;;;;;;;8.25;2.13;;;18.70;99.90;;;;;;5123908;27;20419;-62
2023/09/19 12:08:46;;;;;;;10.88;2.15;;;18.80;99.90;;;;;;5124187;27;20057;-61
2023/09/19 12:11:14;;;;;;;10.63;2.47;;;18.70;99.90;;;;;;5123835;27;20031;-61
2023/09/19 12:13:48;;;;;;;10.35;2.03;;;18.60;99.90;;;;;;5089722;27;20039;-63
2023/09/19 12:16:21;;;;;;;7.55;1.98;;;18.60;99.90;;;;;;5124584;27;20031;-63
2023/09/19 12:18:50;;;;;;;12.90;2.67;;;18.60;99.90;;;;;;5124132;27;20039;-60
2023/09/19 12:21:31;;;;;;;12.35;2.55;;;18.80;99.90;;;;;;5124072;27;20035;-61
2023/09/19 12:24:05;;;;;;;11.68;2.35;;;19.30;99.90;;;;;;5124901;27;20023;-61
2023/09/19 12:26:47;;;;;;;14.05;2.38;;;19.80;99.90;;;;;;5088810;27;20386;-61
2023/09/19 12:29:17;;;;;;;9.48;2.17;;;19.90;99.90;;;;;;5124045;27;20041;-63
2023/09/19 12:31:59;;;;;;;9.65;2.35;;;19.90;99.90;;;;;;5124458;27;20047;-61
2023/09/19 12:34:27;;;;;;;9.15;2.13;;;19.80;99.90;;;;;;5124704;27;20486;-62
2023/09/19 12:37:15;;;;;;;7.85;1.98;;;19.70;99.90;;;;;;5124840;27;20031;-62
2023/09/19 12:39:53;;;;;;;8.98;1.92;;;19.60;99.90;;;;;;5123898;27;20031;-61
2023/09/19 12:42:23;;;;;;;9.98;2.25;;;19.60;99.90;;;;;;5124709;27;20498;-63
2023/09/19 12:44:56;;;;;;;10.80;2.42;;;19.50;99.90;;;;;;5124167;27;20079;-61
2023/09/19 12:47:25;;;;;;;8.35;1.60;;;19.40;99.90;;;;;;5106339;27;20432;-60
2023/09/19 12:50:18;;;;;;;6.78;1.70;;;19.30;99.90;;;;;;5122901;27;20943;-61
2023/09/19 12:52:48;;;;;;;8.13;1.75;;;19.20;99.90;;;;;;5124158;27;20506;-62
2023/09/19 12:55:29;;;;;;;12.23;2.25;;;19.10;99.90;;;;;;5124365;27;20542;-62
2023/09/19 12:58:07;;;;;;;9.43;1.80;;;18.90;99.90;;;;;;5087774;27;20059;-62
2023/09/19 13:00:42;;;;;;;7.28;1.65;;;18.90;99.90;;;;;;5105219;27;20043;-62
2023/09/19 13:03:17;;;;;;;8.88;2.05;;;18.70;99.90;;;;;;5124021;27;20035;-62